This is the latest recevied weather packets stored in our database for station/object E22ZMG-3. If no packets are shown the sender has not sent any weather packets the latest 1 day(s).
| Time | Temp. | Humidity | Pressure | Rain* | Wind** | Luminosity | Snow |
|---|---|---|---|---|---|---|---|
| 1778002022 | 32.78° C | 52% | 976 hPa | - | 0 m/s | 0 W/m² | - |
| 1778001397 | 33.33° C | 50% | 976 hPa | - | 0 m/s | 0 W/m² | - |
| 1778000773 | 32.78° C | 51% | 976 hPa | - | 0 m/s | 0 W/m² | - |
| 1778000148 | 32.22° C | 52% | 977 hPa | - | 0 m/s | 0 W/m² | - |
| 1777999524 | 32.78° C | 52% | 977 hPa | - | 0 m/s | 0 W/m² | - |
| 1777998900 | 32.78° C | 51% | 977 hPa | - | 0 m/s | 0 W/m² | - |
| 1777998275 | 33.33° C | 50% | 977 hPa | - | 0 m/s | 0 W/m² | - |
| 1777997651 | 33.89° C | 48% | 977 hPa | - | 0 m/s | 0 W/m² | - |
| 1777997025 | 33.33° C | 49% | 977 hPa | - | 0 m/s | 0 W/m² | - |
| 1777996400 | 32.22° C | 50% | 977 hPa | - | 0 m/s | 0 W/m² | - |
| 1777995776 | 32.78° C | 50% | 977 hPa | - | 0 m/s | 0 W/m² | - |
| 1777995152 | 33.33° C | 50% | 977 hPa | - | 0 m/s | 0 W/m² | - |
| 1777994527 | 33.33° C | 49% | 977 hPa | - | 0 m/s | 0 W/m² | - |
| 1777993902 | 33.33° C | 49% | 976 hPa | - | 0 m/s | 0 W/m² | - |
| 1777993278 | 32.78° C | 50% | 976 hPa | - | 0 m/s | 0 W/m² | - |
| 1777992653 | 34.44° C | 46% | 976 hPa | - | 0 m/s | 0 W/m² | - |
| 1777992029 | 34.44° C | 46% | 976 hPa | - | 0 m/s | 0 W/m² | - |
| 1777991404 | 33.89° C | 46% | 976 hPa | - | 0 m/s | 0 W/m² | - |
| 1777990780 | 35° C | 44% | 976 hPa | - | 0 m/s | 0 W/m² | - |
| 1777990156 | 34.44° C | 46% | 976 hPa | - | 0 m/s | 0 W/m² | - |
| 1777989532 | 35° C | 45% | 976 hPa | - | 0 m/s | 0 W/m² | - |
| 1777988908 | 35° C | 45% | 975 hPa | - | 0 m/s | 0 W/m² | - |
| 1777988283 | 35° C | 44% | 975 hPa | - | 0 m/s | 0 W/m² | - |
| 1777987658 | 33.89° C | 46% | 975 hPa | - | 0 m/s | 0 W/m² | - |
| 1777987034 | 33.89° C | 44% | 974 hPa | - | 0 m/s | 0 W/m² | - |
* Rain since midnight (hover to see other rain measurements)
** Current wind speed in m/s (hover to see current wind gust speed)